sensor_id;sensor_type;location;lat;lon;timestamp;pressure;altitude;pressure_sealevel;temperature;humidity
3832;BME280;12460;42.662;23.288;2023-12-04T00:03:17;95031.41;;;2.87;52.59
3832;BME280;12460;42.662;23.288;2023-12-04T00:18:19;95052.13;;;2.86;52.11
3832;BME280;12460;42.662;23.288;2023-12-04T00:33:20;95068.75;;;2.97;51.61
3832;BME280;12460;42.662;23.288;2023-12-04T00:48:22;95086.69;;;2.96;49.85
3832;BME280;12460;42.662;23.288;2023-12-04T01:03:24;95100.84;;;2.93;50.45
3832;BME280;12460;42.662;23.288;2023-12-04T01:18:28;95076.38;;;2.74;50.12
3832;BME280;12460;42.662;23.288;2023-12-04T01:33:30;95090.25;;;2.80;49.93
3832;BME280;12460;42.662;23.288;2023-12-04T01:48:32;95095.31;;;2.65;50.27
3832;BME280;12460;42.662;23.288;2023-12-04T02:03:35;95109.44;;;2.67;49.63
3832;BME280;12460;42.662;23.288;2023-12-04T02:18:37;95140.22;;;2.52;50.22
3832;BME280;12460;42.662;23.288;2023-12-04T02:33:40;95147.56;;;2.61;49.57
3832;BME280;12460;42.662;23.288;2023-12-04T02:48:43;95150.31;;;2.55;49.61
3832;BME280;12460;42.662;23.288;2023-12-04T03:03:45;95126.34;;;2.30;49.79
3832;BME280;12460;42.662;23.288;2023-12-04T03:18:47;95127.34;;;2.22;49.73
3832;BME280;12460;42.662;23.288;2023-12-04T03:33:49;95156.84;;;2.19;49.17
3832;BME280;12460;42.662;23.288;2023-12-04T03:48:51;95122.16;;;1.59;49.89
3832;BME280;12460;42.662;23.288;2023-12-04T04:03:53;95170.13;;;1.93;50.15
3832;BME280;12460;42.662;23.288;2023-12-04T04:18:55;95176.56;;;1.62;50.17
3832;BME280;12460;42.662;23.288;2023-12-04T04:33:57;95175.72;;;1.45;50.57
3832;BME280;12460;42.662;23.288;2023-12-04T04:48:59;95176.16;;;1.32;49.17
3832;BME280;12460;42.662;23.288;2023-12-04T05:04:00;95167.72;;;1.10;49.21
3832;BME280;12460;42.662;23.288;2023-12-04T05:19:03;95230.53;;;1.30;50.07
3832;BME280;12460;42.662;23.288;2023-12-04T05:34:05;95233.53;;;1.26;50.88
3832;BME280;12460;42.662;23.288;2023-12-04T05:49:07;95237.78;;;1.22;51.35
3832;BME280;12460;42.662;23.288;2023-12-04T06:04:09;95248.84;;;1.22;51.96
3832;BME280;12460;42.662;23.288;2023-12-04T06:19:11;95256.16;;;1.62;52.08
3832;BME280;12460;42.662;23.288;2023-12-04T06:34:13;95269.22;;;1.98;50.17
3832;BME280;12460;42.662;23.288;2023-12-04T06:49:16;95271.34;;;2.36;48.29
3832;BME280;12460;42.662;23.288;2023-12-04T07:04:19;95295.72;;;2.86;47.72
3832;BME280;12460;42.662;23.288;2023-12-04T07:19:23;95288.94;;;3.47;46.39
3832;BME280;12460;42.662;23.288;2023-12-04T07:34:25;95298.66;;;6.32;42.65
3832;BME280;12460;42.662;23.288;2023-12-04T07:49:28;95282.38;;;7.93;38.21
3832;BME280;12460;42.662;23.288;2023-12-04T08:04:30;95292.41;;;9.81;35.34
3832;BME280;12460;42.662;23.288;2023-12-04T08:19:31;95294.56;;;11.44;32.47
3832;BME280;12460;42.662;23.288;2023-12-04T08:34:33;95305.72;;;11.80;30.00
3832;BME280;12460;42.662;23.288;2023-12-04T08:49:36;95301.78;;;12.58;27.92
3832;BME280;12460;42.662;23.288;2023-12-04T09:04:43;95280.59;;;13.20;26.77
3832;BME280;12460;42.662;23.288;2023-12-04T09:19:45;95276.31;;;14.08;26.37
3832;BME280;12460;42.662;23.288;2023-12-04T09:34:47;95264.28;;;14.25;26.12
3832;BME280;12460;42.662;23.288;2023-12-04T09:49:51;95265.13;;;14.42;25.96
3832;BME280;12460;42.662;23.288;2023-12-04T10:04:54;95241.78;;;14.34;25.76
3832;BME280;12460;42.662;23.288;2023-12-04T10:20:10;95242.25;;;14.99;24.94
3832;BME280;12460;42.662;23.288;2023-12-04T10:35:19;95200.13;;;15.47;24.29
3832;BME280;12460;42.662;23.288;2023-12-04T10:50:21;95209.88;;;15.19;24.49
3832;BME280;12460;42.662;23.288;2023-12-04T11:05:24;95214.69;;;14.65;24.96
3832;BME280;12460;42.662;23.288;2023-12-04T11:20:33;95201.19;;;14.91;24.70
3832;BME280;12460;42.662;23.288;2023-12-04T11:35:38;95179.19;;;13.88;25.05
3832;BME280;12460;42.662;23.288;2023-12-04T11:50:40;95164.31;;;12.59;26.51
3832;BME280;12460;42.662;23.288;2023-12-04T12:05:44;95156.56;;;11.21;29.29
3832;BME280;12460;42.662;23.288;2023-12-04T12:20:46;95123.19;;;10.60;29.49
3832;BME280;12460;42.662;23.288;2023-12-04T12:35:48;95113.38;;;10.45;30.08
3832;BME280;12460;42.662;23.288;2023-12-04T12:50:54;95107.84;;;10.17;30.77
3832;BME280;12460;42.662;23.288;2023-12-04T13:05:56;95072.69;;;9.32;31.75
3832;BME280;12460;42.662;23.288;2023-12-04T13:20:59;95105.88;;;7.85;34.56
3832;BME280;12460;42.662;23.288;2023-12-04T13:36:01;95092.53;;;7.52;35.19
3832;BME280;12460;42.662;23.288;2023-12-04T13:51:03;95107.84;;;6.93;37.05
3832;BME280;12460;42.662;23.288;2023-12-04T14:06:06;95108.56;;;6.30;38.42
3832;BME280;12460;42.662;23.288;2023-12-04T14:21:08;95087.75;;;5.94;39.92
3832;BME280;12460;42.662;23.288;2023-12-04T14:36:10;95097.50;;;5.82;41.24
3832;BME280;12460;42.662;23.288;2023-12-04T14:51:15;95112.25;;;5.10;43.40
3832;BME280;12460;42.662;23.288;2023-12-04T15:06:17;95092.44;;;4.59;45.24
3832;BME280;12460;42.662;23.288;2023-12-04T15:21:45;95100.56;;;4.16;48.06
3832;BME280;12460;42.662;23.288;2023-12-04T15:36:47;95105.03;;;3.90;49.14
3832;BME280;12460;42.662;23.288;2023-12-04T15:51:49;95098.03;;;3.78;50.47
3832;BME280;12460;42.662;23.288;2023-12-04T16:06:51;95088.22;;;3.66;51.07
3832;BME280;12460;42.662;23.288;2023-12-04T16:21:53;95083.63;;;3.79;51.02
3832;BME280;12460;42.662;23.288;2023-12-04T16:36:56;95090.66;;;3.86;51.48
3832;BME280;12460;42.662;23.288;2023-12-04T16:51:58;95112.13;;;3.91;51.45
3832;BME280;12460;42.662;23.288;2023-12-04T17:06:59;95106.88;;;3.76;52.59
3832;BME280;12460;42.662;23.288;2023-12-04T17:22:02;95118.50;;;3.75;53.80
3832;BME280;12460;42.662;23.288;2023-12-04T17:37:04;95106.19;;;3.59;53.17
3832;BME280;12460;42.662;23.288;2023-12-04T17:52:06;95128.47;;;3.53;54.57
3832;BME280;12460;42.662;23.288;2023-12-04T18:07:08;95122.19;;;3.42;54.34
3832;BME280;12460;42.662;23.288;2023-12-04T18:22:10;95114.38;;;3.24;55.31
3832;BME280;12460;42.662;23.288;2023-12-04T18:37:21;95114.66;;;3.20;55.92
3832;BME280;12460;42.662;23.288;2023-12-04T18:52:24;95085.34;;;3.19;55.67
3832;BME280;12460;42.662;23.288;2023-12-04T19:07:26;95105.03;;;3.32;56.42
3832;BME280;12460;42.662;23.288;2023-12-04T19:22:28;95118.00;;;3.76;56.01
3832;BME280;12460;42.662;23.288;2023-12-04T19:37:30;95131.78;;;4.04;56.09
3832;BME280;12460;42.662;23.288;2023-12-04T19:52:32;95108.97;;;4.11;55.70
3832;BME280;12460;42.662;23.288;2023-12-04T20:07:34;95115.09;;;4.04;55.24
3832;BME280;12460;42.662;23.288;2023-12-04T20:22:36;95091.00;;;4.12;55.02
3832;BME280;12460;42.662;23.288;2023-12-04T20:37:38;95083.19;;;4.10;56.53
3832;BME280;12460;42.662;23.288;2023-12-04T20:52:42;95060.41;;;3.71;59.39
3832;BME280;12460;42.662;23.288;2023-12-04T21:07:44;95061.13;;;3.20;62.18
3832;BME280;12460;42.662;23.288;2023-12-04T21:22:46;95061.19;;;2.92;63.81
3832;BME280;12460;42.662;23.288;2023-12-04T21:37:48;95042.81;;;2.78;64.66
3832;BME280;12460;42.662;23.288;2023-12-04T21:52:50;95033.94;;;2.85;64.84
3832;BME280;12460;42.662;23.288;2023-12-04T22:07:51;95027.88;;;2.92;65.40
3832;BME280;12460;42.662;23.288;2023-12-04T22:22:53;95028.16;;;2.89;65.19
3832;BME280;12460;42.662;23.288;2023-12-04T22:37:55;95028.88;;;3.00;64.66
3832;BME280;12460;42.662;23.288;2023-12-04T22:53:01;94997.25;;;3.14;63.91
3832;BME280;12460;42.662;23.288;2023-12-04T23:08:09;94983.06;;;3.23;62.97
3832;BME280;12460;42.662;23.288;2023-12-04T23:23:11;94955.06;;;3.16;63.40
3832;BME280;12460;42.662;23.288;2023-12-04T23:38:13;94936.56;;;3.24;62.12
3832;BME280;12460;42.662;23.288;2023-12-04T23:53:15;94954.53;;;3.23;62.42
